createdAt,value
2023-02-26T00:02:16.412Z,2.00
2023-02-26T00:04:47.921Z,2.04
2023-02-26T00:07:18.230Z,1.95
2023-02-26T00:09:45.565Z,1.98
2023-02-26T00:12:15.270Z,1.99
2023-02-26T00:14:50.166Z,1.99
2023-02-26T00:21:32.556Z,1.91
2023-02-26T00:24:00.331Z,1.87
2023-02-26T00:27:32.607Z,1.87
2023-02-26T00:30:34.333Z,1.72
2023-02-26T00:33:02.605Z,1.90
2023-02-26T00:36:14.436Z,1.87
2023-02-26T00:39:06.580Z,1.74
2023-02-26T00:41:34.427Z,1.58
2023-02-26T00:44:02.354Z,1.57
2023-02-26T00:46:46.043Z,1.56
2023-02-26T00:49:43.009Z,1.61
2023-02-26T00:52:23.300Z,1.62
2023-02-26T00:54:53.069Z,1.60
2023-02-26T00:57:20.510Z,1.56
2023-02-26T00:59:47.429Z,1.52
2023-02-26T01:02:16.148Z,1.56
2023-02-26T01:04:45.051Z,1.56
2023-02-26T01:07:14.316Z,1.54
2023-02-26T01:09:42.393Z,1.55
2023-02-26T01:12:14.233Z,1.56
2023-02-26T01:14:42.678Z,1.52
2023-02-26T01:17:21.579Z,1.58
2023-02-26T01:19:59.107Z,1.53
2023-02-26T01:22:36.932Z,1.37
2023-02-26T01:25:09.973Z,1.42
2023-02-26T01:27:38.297Z,1.40
2023-02-26T01:30:09.347Z,1.28
2023-02-26T01:32:46.270Z,1.20
2023-02-26T01:35:32.385Z,1.18
2023-02-26T01:38:06.565Z,1.25
2023-02-26T01:41:02.498Z,1.24
2023-02-26T01:43:43.597Z,1.17
2023-02-26T01:46:23.082Z,1.09
2023-02-26T01:48:56.331Z,1.01
2023-02-26T01:51:51.313Z,0.98
2023-02-26T01:54:21.911Z,0.99
2023-02-26T01:56:55.522Z,0.95
2023-02-26T01:59:22.714Z,0.95
2023-02-26T02:01:51.545Z,0.98
2023-02-26T02:04:20.789Z,1.00
2023-02-26T02:06:48.540Z,1.02
2023-02-26T02:09:16.172Z,1.04
2023-02-26T02:12:06.814Z,1.16
2023-02-26T02:14:53.876Z,1.12
2023-02-26T02:17:41.242Z,1.12
2023-02-26T02:21:06.940Z,1.11
2023-02-26T02:23:42.932Z,1.07
2023-02-26T02:26:48.967Z,0.83
2023-02-26T02:29:49.587Z,0.89
2023-02-26T02:32:30.149Z,0.93
2023-02-26T02:35:10.719Z,0.90
2023-02-26T02:37:46.120Z,0.81
2023-02-26T02:40:20.454Z,0.83
2023-02-26T02:42:57.049Z,0.84
2023-02-26T02:45:33.678Z,0.81
2023-02-26T02:48:10.602Z,0.80
2023-02-26T02:50:44.481Z,0.79
2023-02-26T02:53:21.621Z,0.82
2023-02-26T02:56:02.278Z,0.64
2023-02-26T02:58:34.246Z,0.61
2023-02-26T03:01:10.634Z,0.44
2023-02-26T03:03:50.853Z,0.49
2023-02-26T03:06:19.845Z,0.51
2023-02-26T03:08:53.652Z,0.57
2023-02-26T03:14:48.888Z,0.65
2023-02-26T03:18:25.472Z,0.66
2023-02-26T03:21:06.817Z,0.60
2023-02-26T03:23:44.457Z,0.59
2023-02-26T03:26:19.819Z,0.58
2023-02-26T03:28:54.755Z,0.56
2023-02-26T03:31:31.838Z,0.58
2023-02-26T03:34:06.883Z,0.27
2023-02-26T03:36:43.134Z,-0.02
2023-02-26T03:39:33.435Z,0.08
2023-02-26T03:42:09.094Z,0.11
2023-02-26T03:44:52.928Z,0.17
2023-02-26T03:47:22.123Z,0.22
2023-02-26T03:49:56.611Z,0.13
2023-02-26T03:52:33.922Z,0.11
2023-02-26T03:55:31.899Z,0.15
2023-02-26T03:58:19.414Z,0.11
2023-02-26T04:01:14.596Z,0.16
2023-02-26T04:03:48.782Z,0.17
2023-02-26T04:06:17.447Z,0.17
2023-02-26T04:08:46.993Z,0.19
2023-02-26T04:11:19.171Z,0.22
2023-02-26T04:13:47.509Z,0.24
2023-02-26T04:16:15.296Z,0.25
2023-02-26T04:18:42.409Z,0.24
2023-02-26T04:21:12.336Z,0.20
2023-02-26T04:23:39.262Z,0.20
2023-02-26T04:26:07.813Z,0.17
2023-02-26T04:28:36.938Z,0.13
2023-02-26T04:31:05.039Z,0.11
2023-02-26T04:33:33.048Z,0.11
2023-02-26T04:36:00.804Z,0.10
2023-02-26T04:38:28.410Z,0.11
2023-02-26T04:40:55.612Z,0.09
2023-02-26T04:43:25.299Z,0.09
2023-02-26T04:46:27.986Z,0.02
2023-02-26T04:48:55.271Z,0.04
2023-02-26T04:51:23.003Z,0.03
2023-02-26T04:53:51.367Z,-0.05
2023-02-26T04:56:18.914Z,-0.08
2023-02-26T04:58:47.757Z,-0.05
2023-02-26T05:01:19.778Z,-0.02
2023-02-26T05:03:48.432Z,0.01
2023-02-26T05:06:15.277Z,-0.05
2023-02-26T05:08:42.459Z,-0.03
2023-02-26T05:11:10.736Z,-0.07
2023-02-26T05:13:38.849Z,-0.15
2023-02-26T05:16:08.957Z,-0.18
2023-02-26T05:18:36.987Z,-0.19
2023-02-26T05:21:05.180Z,-0.21
2023-02-26T05:23:33.087Z,-0.19
2023-02-26T05:26:00.723Z,-0.12
2023-02-26T05:28:28.781Z,-0.08
2023-02-26T05:30:57.294Z,-0.19
2023-02-26T05:33:27.533Z,-0.31
2023-02-26T05:35:55.017Z,-0.31
2023-02-26T05:38:21.885Z,-0.31
2023-02-26T05:40:49.102Z,-0.29
2023-02-26T05:43:16.253Z,-0.21
2023-02-26T05:45:43.285Z,-0.18
2023-02-26T05:48:10.110Z,-0.13
2023-02-26T05:50:38.508Z,-0.10
2023-02-26T05:53:05.500Z,-0.05
2023-02-26T05:55:32.525Z,-0.04
2023-02-26T05:57:59.356Z,-0.03
2023-02-26T06:00:27.007Z,-0.10
2023-02-26T06:02:54.120Z,-0.17
2023-02-26T06:05:21.066Z,-0.13
2023-02-26T06:07:49.306Z,-0.13
2023-02-26T06:10:16.171Z,-0.09
2023-02-26T06:12:43.081Z,-0.07
2023-02-26T06:15:11.325Z,-0.09
2023-02-26T06:17:40.895Z,0.01
2023-02-26T06:20:09.843Z,0.08
2023-02-26T06:22:36.811Z,0.15
2023-02-26T06:25:06.957Z,0.14
2023-02-26T06:27:35.983Z,0.15
2023-02-26T06:30:07.374Z,0.15
2023-02-26T06:32:36.971Z,0.18
2023-02-26T06:35:05.679Z,0.23
2023-02-26T06:37:32.586Z,0.26
2023-02-26T06:39:59.621Z,0.34
2023-02-26T06:42:28.635Z,0.45
2023-02-26T06:45:07.313Z,0.52
2023-02-26T06:47:41.924Z,0.65
2023-02-26T06:53:15.877Z,0.83
2023-02-26T06:56:35.180Z,0.95
2023-02-26T06:59:18.528Z,1.02
2023-02-26T07:02:02.262Z,1.11
2023-02-26T07:05:40.194Z,1.14
2023-02-26T07:08:48.596Z,1.20
2023-02-26T07:11:17.037Z,1.13
2023-02-26T07:13:44.027Z,1.09
2023-02-26T07:16:12.204Z,1.12
2023-02-26T07:18:39.207Z,1.17
2023-02-26T07:21:06.171Z,1.31
2023-02-26T07:23:33.193Z,1.21
2023-02-26T07:26:00.461Z,1.27
2023-02-26T07:28:27.587Z,1.27
2023-02-26T07:30:55.775Z,1.33
2023-02-26T07:33:25.143Z,1.42
2023-02-26T07:35:52.611Z,1.52
2023-02-26T07:38:19.883Z,1.53
2023-02-26T07:40:46.994Z,1.60
2023-02-26T07:43:14.021Z,1.63
2023-02-26T07:45:40.885Z,1.65
2023-02-26T07:48:07.951Z,1.70
2023-02-26T07:50:36.236Z,1.61
2023-02-26T07:53:03.210Z,1.66
2023-02-26T07:55:30.331Z,1.83
2023-02-26T07:57:57.213Z,2.05
2023-02-26T08:00:24.318Z,2.27
2023-02-26T08:02:51.313Z,2.72
2023-02-26T08:05:18.706Z,3.31
2023-02-26T08:07:47.081Z,3.54
2023-02-26T08:10:14.055Z,3.71
2023-02-26T08:12:40.956Z,3.92
2023-02-26T08:15:08.933Z,4.07
2023-02-26T08:22:55.853Z,3.65
2023-02-26T08:25:22.716Z,3.74
2023-02-26T08:27:49.606Z,3.57
2023-02-26T08:30:16.503Z,3.41
2023-02-26T08:32:43.366Z,3.40
2023-02-26T08:35:10.758Z,3.39
2023-02-26T08:37:38.341Z,3.63
2023-02-26T08:40:09.449Z,4.02
2023-02-26T08:42:36.708Z,3.21
2023-02-26T08:45:05.019Z,3.43
2023-02-26T08:47:32.995Z,3.58
2023-02-26T08:50:00.846Z,3.11
2023-02-26T08:52:27.640Z,3.17
2023-02-26T08:54:54.688Z,3.25
2023-02-26T08:57:22.835Z,3.46
2023-02-26T08:59:49.614Z,3.12
2023-02-26T09:02:16.807Z,3.14
2023-02-26T09:04:43.723Z,2.65
2023-02-26T09:07:10.627Z,2.63
2023-02-26T09:09:37.467Z,2.40
2023-02-26T09:12:07.297Z,2.30
2023-02-26T09:14:35.472Z,2.01
2023-02-26T09:17:02.278Z,2.01
2023-02-26T09:19:29.768Z,1.81
2023-02-26T09:21:56.858Z,1.87
2023-02-26T09:24:23.957Z,2.11
2023-02-26T09:26:51.885Z,2.84
2023-02-26T09:29:18.946Z,3.54
2023-02-26T09:31:47.257Z,3.49
2023-02-26T09:34:16.125Z,2.41
2023-02-26T09:36:43.539Z,2.16
2023-02-26T09:39:10.497Z,1.96
2023-02-26T09:41:43.064Z,1.96
2023-02-26T09:44:21.751Z,2.02
2023-02-26T09:47:01.917Z,2.08
2023-02-26T09:49:46.314Z,2.19
2023-02-26T09:52:26.707Z,3.13
2023-02-26T09:55:00.620Z,3.93
2023-02-26T09:57:31.944Z,3.44
2023-02-26T10:00:00.692Z,2.67
2023-02-26T10:02:40.477Z,3.04
2023-02-26T10:05:20.770Z,2.92
2023-02-26T10:07:59.544Z,2.50
2023-02-26T10:10:43.848Z,2.45
2023-02-26T10:13:24.159Z,2.74
2023-02-26T10:15:57.300Z,2.21
2023-02-26T10:18:34.194Z,1.94
2023-02-26T10:21:11.028Z,2.21
2023-02-26T10:23:44.324Z,1.96
2023-02-26T10:26:18.865Z,2.28
2023-02-26T10:28:59.393Z,3.09
2023-02-26T10:31:37.384Z,2.79
2023-02-26T10:34:18.468Z,2.66
2023-02-26T10:36:54.438Z,2.59
2023-02-26T10:39:38.292Z,2.60
2023-02-26T10:42:17.063Z,2.60
2023-02-26T10:45:02.409Z,3.04
2023-02-26T10:47:44.672Z,2.92
2023-02-26T10:50:17.647Z,2.81
2023-02-26T10:52:47.163Z,3.02
2023-02-26T10:55:35.005Z,3.13
2023-02-26T10:58:06.165Z,2.58
2023-02-26T11:00:35.209Z,3.15
2023-02-26T11:03:05.007Z,2.79
2023-02-26T11:05:34.585Z,2.78
2023-02-26T11:08:06.185Z,3.15
2023-02-26T11:10:44.649Z,2.97
2023-02-26T11:13:11.454Z,2.43
2023-02-26T11:15:39.229Z,2.55
2023-02-26T11:18:13.852Z,2.89
2023-02-26T11:20:45.945Z,2.98
2023-02-26T11:23:18.167Z,2.50
2023-02-26T11:25:46.166Z,2.24
2023-02-26T11:28:23.148Z,2.07
2023-02-26T11:30:51.466Z,2.12
2023-02-26T11:33:23.185Z,2.10
2023-02-26T11:36:01.424Z,3.72
2023-02-26T11:38:37.704Z,2.79
2023-02-26T11:41:06.276Z,2.49
2023-02-26T11:43:43.981Z,2.60
2023-02-26T11:46:13.750Z,2.41
2023-02-26T11:48:47.029Z,2.33
2023-02-26T11:51:21.403Z,2.66
2023-02-26T11:53:52.165Z,2.25
2023-02-26T11:56:30.062Z,3.00
2023-02-26T11:59:05.893Z,2.84
2023-02-26T12:01:36.958Z,3.06
2023-02-26T12:04:04.115Z,2.92
2023-02-26T12:06:32.526Z,2.76
2023-02-26T12:08:59.629Z,2.89
2023-02-26T12:12:11.078Z,2.82
2023-02-26T12:15:04.094Z,2.92
2023-02-26T12:17:55.415Z,2.99
2023-02-26T12:20:32.061Z,3.15
2023-02-26T12:23:28.191Z,2.97
2023-02-26T12:26:25.126Z,2.74
2023-02-26T12:29:40.455Z,2.72
2023-02-26T12:32:51.738Z,2.86
2023-02-26T12:35:46.282Z,4.22
2023-02-26T12:38:30.153Z,3.84
2023-02-26T12:41:52.690Z,2.69
2023-02-26T12:44:57.554Z,2.39
2023-02-26T12:47:52.365Z,2.30
2023-02-26T12:50:48.366Z,2.59
2023-02-26T12:53:57.590Z,2.84
2023-02-26T12:56:56.866Z,2.47
2023-02-26T13:00:10.473Z,2.60
2023-02-26T13:03:23.268Z,2.92
2023-02-26T13:06:43.719Z,2.79
2023-02-26T13:09:35.749Z,3.41
2023-02-26T13:12:22.892Z,3.66
2023-02-26T13:15:07.425Z,3.95
2023-02-26T13:17:47.245Z,3.49
2023-02-26T13:20:22.035Z,3.57
2023-02-26T13:22:57.541Z,3.97
2023-02-26T13:25:36.420Z,3.45
2023-02-26T13:28:13.976Z,3.32
2023-02-26T13:30:48.789Z,3.49
2023-02-26T13:33:20.414Z,3.48
2023-02-26T13:35:52.436Z,3.96
2023-02-26T13:38:33.203Z,3.60
2023-02-26T13:41:14.314Z,3.84
2023-02-26T13:44:17.578Z,3.39
2023-02-26T13:47:31.878Z,3.72
2023-02-26T13:50:23.298Z,3.77
2023-02-26T13:52:53.391Z,4.15
2023-02-26T13:55:38.350Z,5.03
2023-02-26T13:58:29.383Z,3.89
2023-02-26T14:01:06.534Z,3.64
2023-02-26T14:03:36.087Z,3.53
2023-02-26T14:06:25.121Z,3.30
2023-02-26T14:08:56.466Z,3.34
2023-02-26T14:12:00.496Z,3.69
2023-02-26T14:14:36.865Z,3.53
2023-02-26T14:17:40.554Z,3.89
2023-02-26T14:20:24.537Z,3.50
2023-02-26T14:23:13.089Z,3.84
2023-02-26T14:25:46.669Z,3.79
2023-02-26T14:28:43.184Z,3.50
2023-02-26T14:31:21.686Z,3.15
2023-02-26T14:34:07.791Z,3.18
2023-02-26T14:36:44.994Z,3.08
2023-02-26T14:39:26.506Z,3.22
2023-02-26T14:42:01.812Z,3.22
2023-02-26T14:44:36.433Z,3.26
2023-02-26T14:47:05.387Z,3.06
2023-02-26T14:49:36.534Z,3.11
2023-02-26T14:52:26.115Z,3.24
2023-02-26T14:55:38.098Z,3.26
2023-02-26T14:58:43.816Z,3.33
2023-02-26T15:01:34.602Z,3.35
2023-02-26T15:04:51.890Z,3.57
2023-02-26T15:07:39.885Z,3.67
2023-02-26T15:10:30.231Z,3.44
2023-02-26T15:13:25.689Z,3.26
2023-02-26T15:16:02.003Z,3.22
2023-02-26T15:18:54.779Z,3.14
2023-02-26T15:21:38.390Z,3.16
2023-02-26T15:24:09.502Z,3.14
2023-02-26T15:26:45.768Z,2.99
2023-02-26T15:29:15.543Z,3.14
2023-02-26T15:31:47.265Z,3.09
2023-02-26T15:34:16.302Z,3.04
2023-02-26T15:36:46.921Z,3.07
2023-02-26T15:39:17.313Z,3.22
2023-02-26T15:41:47.712Z,3.15
2023-02-26T15:44:19.675Z,3.18
2023-02-26T15:46:55.158Z,2.97
2023-02-26T15:49:27.889Z,2.96
2023-02-26T15:51:59.073Z,2.90
2023-02-26T15:54:34.946Z,2.93
2023-02-26T15:57:03.927Z,2.90
2023-02-26T15:59:33.414Z,2.89
2023-02-26T16:02:02.410Z,2.92
2023-02-26T16:04:29.568Z,2.82
2023-02-26T16:06:58.200Z,2.91
2023-02-26T16:09:29.875Z,2.98
2023-02-26T16:12:04.637Z,2.67
2023-02-26T16:14:37.815Z,2.68
2023-02-26T16:17:07.847Z,2.74
2023-02-26T16:19:40.507Z,2.76
2023-02-26T16:22:22.573Z,2.79
2023-02-26T16:25:00.196Z,2.82
2023-02-26T16:27:30.810Z,2.87
2023-02-26T16:30:02.228Z,2.74
2023-02-26T16:32:33.942Z,2.81
2023-02-26T16:35:11.808Z,2.82
2023-02-26T16:37:45.672Z,2.77
2023-02-26T16:40:20.152Z,2.66
2023-02-26T16:43:00.898Z,2.65
2023-02-26T16:45:48.512Z,2.48
2023-02-26T16:48:21.407Z,2.50
2023-02-26T16:50:58.008Z,2.42
2023-02-26T16:53:35.416Z,2.35
2023-02-26T16:56:05.163Z,2.44
2023-02-26T16:58:34.509Z,2.36
2023-02-26T17:01:12.713Z,2.36
2023-02-26T17:03:41.643Z,2.30
2023-02-26T17:06:12.431Z,2.28
2023-02-26T17:08:51.197Z,2.24
2023-02-26T17:11:27.088Z,2.18
2023-02-26T17:14:14.134Z,2.34
2023-02-26T17:16:42.467Z,2.26
2023-02-26T17:19:09.356Z,2.25
2023-02-26T17:21:42.618Z,2.16
2023-02-26T17:24:17.441Z,2.11
2023-02-26T17:26:45.572Z,2.08
2023-02-26T17:29:20.521Z,2.16
2023-02-26T17:31:47.457Z,2.15
2023-02-26T17:34:14.745Z,2.04
2023-02-26T17:36:41.779Z,2.11
2023-02-26T17:39:12.516Z,1.97
2023-02-26T17:41:43.249Z,1.95
2023-02-26T17:44:10.457Z,2.00
2023-02-26T17:46:37.960Z,2.03
2023-02-26T17:49:05.081Z,1.99
2023-02-26T17:51:32.365Z,1.94
2023-02-26T17:53:59.334Z,1.90
2023-02-26T17:56:30.295Z,1.89
2023-02-26T17:58:59.304Z,1.84
2023-02-26T18:01:26.655Z,1.85
2023-02-26T18:03:54.814Z,1.82
2023-02-26T18:06:23.973Z,1.83
2023-02-26T18:08:51.324Z,1.88
2023-02-26T18:11:18.511Z,1.83
2023-02-26T18:13:46.864Z,1.85
2023-02-26T18:16:19.821Z,1.82
2023-02-26T18:18:48.000Z,1.78
2023-02-26T18:21:14.922Z,1.79
2023-02-26T18:23:41.914Z,1.82
2023-02-26T18:26:11.708Z,1.82
2023-02-26T18:28:39.146Z,1.82
2023-02-26T18:31:07.584Z,1.77
2023-02-26T18:33:34.645Z,1.85
2023-02-26T18:36:04.933Z,1.74
2023-02-26T18:38:32.102Z,1.70
2023-02-26T18:40:58.927Z,1.71
2023-02-26T18:43:25.740Z,1.68
2023-02-26T18:45:52.641Z,1.63
2023-02-26T18:48:21.243Z,1.59
2023-02-26T18:50:49.063Z,1.54
2023-02-26T18:53:16.308Z,1.57
2023-02-26T18:55:43.563Z,1.54
2023-02-26T18:58:10.515Z,1.48
2023-02-26T19:00:37.336Z,1.59
2023-02-26T19:03:04.301Z,1.60
2023-02-26T19:05:32.730Z,1.54
2023-02-26T19:08:05.518Z,1.47
2023-02-26T19:10:33.908Z,1.43
2023-02-26T19:13:01.306Z,1.38
2023-02-26T19:15:28.532Z,1.31
2023-02-26T19:17:55.365Z,1.30
2023-02-26T19:20:22.505Z,1.32
2023-02-26T19:22:55.054Z,1.32
2023-02-26T19:25:23.396Z,1.26
2023-02-26T19:27:53.867Z,1.26
2023-02-26T19:30:22.277Z,1.29
2023-02-26T19:32:49.386Z,1.29
2023-02-26T19:35:16.663Z,1.18
2023-02-26T19:37:43.963Z,1.12
2023-02-26T19:40:14.214Z,1.08
2023-02-26T19:42:41.089Z,1.06
2023-02-26T19:45:09.493Z,1.12
2023-02-26T19:47:36.393Z,1.11
2023-02-26T19:50:05.252Z,1.13
2023-02-26T19:52:32.217Z,1.12
2023-02-26T19:54:59.079Z,1.04
2023-02-26T19:57:27.933Z,0.94
2023-02-26T19:59:54.937Z,0.90
2023-02-26T20:02:22.142Z,0.92
2023-02-26T20:04:49.084Z,0.89
2023-02-26T20:07:15.989Z,0.83
2023-02-26T20:09:43.271Z,0.82
2023-02-26T20:12:10.017Z,0.79
2023-02-26T20:14:38.260Z,0.79
2023-02-26T20:17:05.921Z,0.75
2023-02-26T20:19:32.746Z,0.75
2023-02-26T20:21:59.606Z,0.73
2023-02-26T20:24:26.719Z,0.72
2023-02-26T20:26:53.612Z,0.71
2023-02-26T20:29:20.618Z,0.71
2023-02-26T20:31:49.070Z,0.69
2023-02-26T20:34:16.134Z,0.64
2023-02-26T20:36:43.038Z,0.64
2023-02-26T20:39:09.875Z,0.62
2023-02-26T20:41:36.884Z,0.64
2023-02-26T20:44:04.481Z,0.67
2023-02-26T20:46:31.625Z,0.55
2023-02-26T20:48:59.944Z,0.53
2023-02-26T20:51:27.399Z,0.46
2023-02-26T20:53:54.595Z,0.48
2023-02-26T20:56:21.349Z,0.47
2023-02-26T20:58:48.230Z,0.49
2023-02-26T21:01:15.202Z,0.47
2023-02-26T21:03:42.048Z,0.48
2023-02-26T21:06:10.241Z,0.45
2023-02-26T21:08:37.071Z,0.46
2023-02-26T21:11:05.284Z,0.42
2023-02-26T21:13:32.047Z,0.43
2023-02-26T21:15:59.039Z,0.37
2023-02-26T21:18:25.868Z,0.40
2023-02-26T21:20:53.019Z,0.37
2023-02-26T21:23:21.296Z,0.37
2023-02-26T21:25:48.377Z,0.32
2023-02-26T21:28:15.229Z,0.30
2023-02-26T21:30:42.081Z,0.27
2023-02-26T21:33:09.000Z,0.27
2023-02-26T21:35:35.766Z,0.21
2023-02-26T21:38:02.822Z,0.22
2023-02-26T21:40:30.975Z,0.20
2023-02-26T21:42:58.256Z,0.20
2023-02-26T21:45:25.041Z,0.19
2023-02-26T21:47:52.050Z,0.19
2023-02-26T21:50:18.956Z,0.19
2023-02-26T21:52:45.851Z,0.25
2023-02-26T21:55:12.586Z,0.21
2023-02-26T21:57:41.085Z,0.14
2023-02-26T22:00:09.629Z,0.13
2023-02-26T22:02:40.663Z,0.15
2023-02-26T22:05:07.962Z,0.11
2023-02-26T22:07:34.770Z,0.08
2023-02-26T22:10:01.714Z,0.09
2023-02-26T22:12:28.604Z,0.09
2023-02-26T22:14:56.729Z,0.05
2023-02-26T22:17:24.498Z,0.05
2023-02-26T22:19:52.452Z,0.01
2023-02-26T22:22:19.500Z,0.00
2023-02-26T22:24:46.362Z,0.01
2023-02-26T22:27:13.124Z,-0.03
2023-02-26T22:29:40.193Z,0.03
2023-02-26T22:32:08.349Z,-0.02
2023-02-26T22:34:35.220Z,-0.04
2023-02-26T22:37:04.989Z,-0.12
2023-02-26T22:39:31.868Z,-0.03
2023-02-26T22:41:58.728Z,-0.09
2023-02-26T22:44:25.554Z,-0.09
2023-02-26T22:46:52.305Z,-0.09
2023-02-26T22:49:20.713Z,-0.17
2023-02-26T22:51:47.567Z,-0.18
2023-02-26T22:54:14.474Z,-0.19
2023-02-26T22:56:41.260Z,-0.21
2023-02-26T22:59:08.083Z,-0.23
2023-02-26T23:01:34.939Z,-0.18
2023-02-26T23:04:01.792Z,-0.11
2023-02-26T23:06:30.004Z,-0.15
2023-02-26T23:08:56.813Z,-0.21
2023-02-26T23:11:23.845Z,-0.22
2023-02-26T23:13:50.960Z,-0.19
2023-02-26T23:16:18.103Z,-0.18
2023-02-26T23:18:44.872Z,-0.23
2023-02-26T23:21:12.234Z,-0.29
2023-02-26T23:23:40.748Z,-0.26
2023-02-26T23:26:07.904Z,-0.28
2023-02-26T23:28:34.830Z,-0.28
2023-02-26T23:31:01.730Z,-0.29
2023-02-26T23:33:28.553Z,-0.29
2023-02-26T23:35:56.188Z,-0.29
2023-02-26T23:38:23.478Z,-0.28
2023-02-26T23:40:51.865Z,-0.32
2023-02-26T23:43:18.843Z,-0.37
2023-02-26T23:45:45.639Z,-0.36
2023-02-26T23:48:12.550Z,-0.37
2023-02-26T23:50:39.588Z,-0.37
2023-02-26T23:53:06.952Z,-0.42
2023-02-26T23:55:34.080Z,-0.41
2023-02-26T23:58:02.218Z,-0.40
